Time;durP1;ratioP1;P1;durP2;ratioP2;P2;SDS_P1;SDS_P2;PMS_P1;PMS_P2;Temp;Humidity;BMP_temperature;BMP_pressure;BME280_temperature;BME280_humidity;BME280_pressure;Samples;Min_cycle;Max_cycle;Signal;HPM_P1;HPM_P2
2021/03/23 00:01:47;;;;;;;13.20;8.33;;;;;;;6.78;83.60;101194.42;638651;221;27269;-76
2021/03/23 00:04:15;;;;;;;15.07;8.13;;;;;;;6.63;84.49;101203.97;639314;221;24897;-76
2021/03/23 00:06:43;;;;;;;14.97;8.07;;;;;;;6.62;84.51;101211.82;642465;221;24899;-76
2021/03/23 00:09:11;;;;;;;15.33;8.70;;;;;;;6.57;85.35;101218.55;639505;221;27041;-76
2021/03/23 00:11:39;;;;;;;11.63;7.43;;;;;;;6.50;85.52;101221.16;640101;221;24899;-76
2021/03/23 00:14:07;;;;;;;15.47;6.90;;;;;;;6.57;85.14;101221.59;643107;221;24889;-76
2021/03/23 00:16:34;;;;;;;16.70;7.70;;;;;;;6.52;85.61;101220.13;641546;221;24904;-76
2021/03/23 00:19:04;;;;;;;11.43;7.60;;;;;;;6.43;85.16;101223.73;628563;225;26031;-76
2021/03/23 00:21:32;;;;;;;15.10;8.43;;;;;;;6.47;85.70;101223.91;641567;220;27052;-76
2021/03/23 00:24:00;;;;;;;12.20;7.23;;;;;;;6.46;85.28;101224.83;632752;225;24940;-77
2021/03/23 00:26:28;;;;;;;15.80;7.97;;;;;;;6.28;86.21;101224.66;649136;221;25182;-76
2021/03/23 00:28:56;;;;;;;17.40;8.87;;;;;;;6.35;86.16;101226.80;641797;221;24887;-76
2021/03/23 00:31:24;;;;;;;14.70;7.97;;;;;;;6.30;86.52;101226.23;638608;225;24913;-76
2021/03/23 00:33:52;;;;;;;11.73;8.00;;;;;;;6.74;85.42;101225.25;638724;221;32919;-76
2021/03/23 00:36:19;;;;;;;15.38;8.50;;;;;;;7.02;83.76;101216.13;640055;221;32727;-76
2021/03/23 00:38:47;;;;;;;13.20;8.23;;;;;;;6.55;85.89;101224.28;639724;221;23751;-77
2021/03/23 00:41:15;;;;;;;18.07;8.97;;;;;;;6.43;85.82;101223.27;637247;221;24876;-75
2021/03/23 00:43:43;;;;;;;12.30;8.27;;;;;;;6.34;86.49;101227.72;641068;221;24894;-76
2021/03/23 00:46:11;;;;;;;12.80;8.07;;;;;;;6.36;86.76;101226.34;626294;225;28130;-75
2021/03/23 00:48:39;;;;;;;14.13;8.77;;;;;;;6.49;86.60;101228.08;643962;221;24900;-75
2021/03/23 00:51:06;;;;;;;12.50;7.60;;;;;;;6.49;86.14;101219.03;637290;225;28111;-75
2021/03/23 00:53:34;;;;;;;16.90;8.03;;;;;;;6.45;86.20;101222.70;633622;225;25024;-76
2021/03/23 00:56:02;;;;;;;11.90;7.90;;;;;;;6.48;86.17;101222.55;647555;221;27064;-76
2021/03/23 00:58:31;;;;;;;12.20;7.53;;;;;;;6.45;86.11;101226.59;640969;220;24880;-76
2021/03/23 01:00:59;;;;;;;11.27;8.00;;;;;;;6.24;87.20;101221.44;637085;225;24923;-76
2021/03/23 01:03:27;;;;;;;11.83;7.50;;;;;;;6.31;88.04;101228.34;630157;225;28196;-75
2021/03/23 01:05:55;;;;;;;15.23;8.30;;;;;;;6.47;87.08;101228.61;646241;221;24893;-75
2021/03/23 01:08:23;;;;;;;12.87;8.50;;;;;;;6.80;85.35;101218.42;625296;225;32980;-76
2021/03/23 01:10:50;;;;;;;15.17;8.33;;;;;;;6.41;86.14;101219.95;650603;220;24875;-76
2021/03/23 01:13:18;;;;;;;12.73;8.10;;;;;;;6.42;86.96;101222.90;646530;221;24918;-75
2021/03/23 01:15:46;;;;;;;16.90;8.57;;;;;;;6.41;87.33;101222.54;627891;226;25250;-75
2021/03/23 01:18:14;;;;;;;13.20;8.43;;;;;;;6.84;85.95;101210.83;628625;225;34083;-75
2021/03/23 01:20:42;;;;;;;13.50;8.30;;;;;;;6.53;86.00;101208.88;627297;225;24931;-75
2021/03/23 01:23:10;;;;;;;26.03;8.23;;;;;;;6.45;86.28;101216.25;637159;224;24884;-76
2021/03/23 01:25:38;;;;;;;11.43;7.57;;;;;;;6.43;87.02;101214.69;643877;220;24921;-75
2021/03/23 01:28:05;;;;;;;9.83;7.70;;;;;;;6.35;87.12;101213.88;642051;221;24903;-76
2021/03/23 01:30:33;;;;;;;13.37;7.50;;;;;;;6.40;86.81;101218.76;639624;221;24892;-75
2021/03/23 01:33:01;;;;;;;15.80;8.57;;;;;;;6.24;86.63;101209.36;637976;223;25013;-76
2021/03/23 01:35:29;;;;;;;12.43;7.60;;;;;;;6.19;87.43;101210.53;641199;221;24923;-76
2021/03/23 01:37:57;;;;;;;17.97;9.67;;;;;;;6.34;86.83;101211.39;647578;221;24900;-76
2021/03/23 01:40:25;;;;;;;15.70;7.67;;;;;;;6.28;87.38;101207.88;650060;220;24875;-75
2021/03/23 01:42:53;;;;;;;17.17;9.27;;;;;;;6.30;86.21;101212.02;642528;221;27051;-75
2021/03/23 01:45:23;;;;;;;18.93;8.13;;;;;;;6.10;87.82;101218.39;635787;226;24930;-76
2021/03/23 01:47:51;;;;;;;22.20;9.40;;;;;;;6.06;87.25;101215.64;641244;221;24940;-76
2021/03/23 01:50:19;;;;;;;16.10;8.73;;;;;;;6.07;87.57;101217.76;646777;221;24898;-76
2021/03/23 01:52:47;;;;;;;15.73;7.90;;;;;;;6.10;87.50;101212.40;647004;221;24890;-76
2021/03/23 01:55:15;;;;;;;13.00;8.50;;;;;;;6.18;87.67;101214.88;632470;225;25211;-76
2021/03/23 01:57:44;;;;;;;21.53;9.00;;;;;;;6.15;87.02;101208.61;645256;221;25175;-76
2021/03/23 02:00:12;;;;;;;14.80;9.00;;;;;;;6.19;87.85;101214.41;641526;220;26098;-76
2021/03/23 02:02:40;;;;;;;16.43;8.50;;;;;;;6.21;87.27;101211.30;627886;225;25032;-76
2021/03/23 02:05:09;;;;;;;13.70;9.10;;;;;;;6.21;87.32;101211.30;642773;223;24901;-76
2021/03/23 02:07:38;;;;;;;12.37;8.90;;;;;;;6.27;86.92;101208.80;628037;226;24979;-75
2021/03/23 02:10:07;;;;;;;13.27;8.17;;;;;;;6.25;87.36;101211.48;643236;220;24903;-76
2021/03/23 02:12:35;;;;;;;14.27;8.37;;;;;;;6.33;87.65;101202.78;641646;221;24906;-76
2021/03/23 02:15:03;;;;;;;13.87;8.37;;;;;;;6.84;85.83;101209.54;628547;225;32906;-75
2021/03/23 02:17:32;;;;;;;12.53;7.30;;;;;;;6.40;86.58;101202.80;639534;224;28123;-76
2021/03/23 02:19:59;;;;;;;12.20;8.53;;;;;;;6.38;87.29;101204.64;645749;220;24933;-76
2021/03/23 02:22:27;;;;;;;19.73;8.33;;;;;;;6.41;87.49;101205.74;631375;225;26050;-77
2021/03/23 02:24:55;;;;;;;11.67;7.43;;;;;;;6.28;87.59;101202.70;626774;226;25055;-75
2021/03/23 02:27:23;;;;;;;11.60;7.70;;;;;;;6.32;87.59;101206.29;635519;225;25114;-75
2021/03/23 02:29:51;;;;;;;13.93;7.60;;;;;;;6.26;87.73;101204.09;643182;221;24888;-76
2021/03/23 02:32:19;;;;;;;14.17;8.80;;;;;;;6.28;87.79;101211.28;643514;221;24980;-76
2021/03/23 02:34:47;;;;;;;16.20;8.27;;;;;;;6.22;88.05;101209.09;639478;221;24894;-76
2021/03/23 02:37:15;;;;;;;17.20;9.10;;;;;;;6.26;87.97;101207.97;640792;222;24885;-76
2021/03/23 02:39:43;;;;;;;19.60;9.60;;;;;;;5.99;87.90;101205.75;642719;221;24890;-75
2021/03/23 02:42:11;;;;;;;13.80;8.27;;;;;;;6.12;87.79;101207.51;638033;224;24901;-76
2021/03/23 02:44:39;;;;;;;15.77;8.67;;;;;;;6.01;88.67;101210.36;642279;221;24895;-77
2021/03/23 02:47:07;;;;;;;12.40;9.00;;;;;;;5.97;88.33;101205.84;639326;222;25183;-77
2021/03/23 02:49:35;;;;;;;15.27;8.60;;;;;;;5.94;89.52;101214.60;637653;222;24888;-77
2021/03/23 02:52:04;;;;;;;12.43;7.60;;;;;;;5.95;89.23;101216.27;644152;221;27017;-77
2021/03/23 02:54:31;;;;;;;13.03;8.73;;;;;;;6.06;88.52;101210.47;644163;221;24915;-78
2021/03/23 02:56:59;;;;;;;10.63;6.73;;;;;;;6.05;89.07;101204.91;643099;221;24897;-78
2021/03/23 02:59:27;;;;;;;12.70;7.00;;;;;;;5.97;89.51;101202.43;638591;222;24920;-77
2021/03/23 03:01:55;;;;;;;14.03;8.23;;;;;;;6.19;88.46;101205.38;638646;221;25994;-77
2021/03/23 03:04:23;;;;;;;13.30;8.20;;;;;;;6.11;88.91;101202.44;627764;225;24936;-77
2021/03/23 03:06:51;;;;;;;13.40;7.20;;;;;;;6.05;88.97;101195.87;642848;221;28051;-77
2021/03/23 03:09:19;;;;;;;17.20;8.80;;;;;;;6.06;88.81;101200.14;631190;225;24969;-77
2021/03/23 03:11:46;;;;;;;19.03;8.20;;;;;;;6.13;88.97;101200.59;643815;221;24901;-77
2021/03/23 03:14:14;;;;;;;14.23;7.93;;;;;;;5.95;89.39;101202.06;633175;226;25042;-77
2021/03/23 03:16:42;;;;;;;13.30;8.10;;;;;;;5.87;90.16;101200.35;646473;221;25149;-77
2021/03/23 03:19:10;;;;;;;15.43;9.17;;;;;;;6.33;88.04;101200.20;625120;226;32983;-78
2021/03/23 03:21:38;;;;;;;16.93;9.37;;;;;;;6.25;88.07;101194.22;636554;220;43816;-79
2021/03/23 03:24:07;;;;;;;12.43;8.40;;;;;;;5.93;89.17;101194.88;651418;221;24914;-77
2021/03/23 03:26:35;;;;;;;15.30;8.70;;;;;;;6.10;89.11;101197.73;644819;221;24904;-77
2021/03/23 03:29:03;;;;;;;12.77;7.80;;;;;;;5.95;90.13;101196.91;641050;222;24937;-77
2021/03/23 03:31:31;;;;;;;14.00;8.90;;;;;;;6.08;89.58;101206.50;638695;225;24931;-77
2021/03/23 03:33:59;;;;;;;15.93;8.20;;;;;;;6.12;89.86;101204.09;641409;221;24921;-77
2021/03/23 03:36:27;;;;;;;13.20;7.67;;;;;;;6.05;90.06;101204.91;631698;225;24981;-77
2021/03/23 03:38:55;;;;;;;13.97;7.70;;;;;;;6.06;89.32;101200.14;635478;225;24938;-77
2021/03/23 03:41:22;;;;;;;12.90;8.07;;;;;;;5.99;90.27;101203.99;627804;225;25215;-78
2021/03/23 03:43:50;;;;;;;15.50;8.33;;;;;;;6.07;89.30;101203.55;642899;221;24984;-77
2021/03/23 03:46:18;;;;;;;14.97;8.60;;;;;;;6.12;89.26;101200.22;642880;221;24877;-76
2021/03/23 03:48:46;;;;;;;19.43;7.73;;;;;;;6.07;90.06;101199.22;631788;226;24920;-76
2021/03/23 03:51:14;;;;;;;17.43;9.37;;;;;;;6.02;89.96;101199.10;645244;220;25922;-77
2021/03/23 03:53:42;;;;;;;13.93;9.00;;;;;;;6.05;89.37;101197.16;638309;222;24877;-77
2021/03/23 03:56:10;;;;;;;14.83;8.20;;;;;;;5.95;89.65;101207.69;643646;221;24876;-77
2021/03/23 03:58:38;;;;;;;16.07;8.97;;;;;;;6.45;87.80;101198.16;640187;221;32749;-77
2021/03/23 04:01:05;;;;;;;11.75;8.33;;;;;;;6.81;86.58;101191.64;640172;221;32773;-77
2021/03/23 04:03:33;;;;;;;15.80;9.70;;;;;;;6.91;85.82;101186.73;643577;221;32731;-77
2021/03/23 04:06:01;;;;;;;16.23;8.70;;;;;;;6.34;88.27;101195.89;645029;221;24882;-77
2021/03/23 04:08:29;;;;;;;13.30;8.50;;;;;;;6.34;88.77;101200.59;636558;222;24900;-76
2021/03/23 04:10:57;;;;;;;13.53;8.57;;;;;;;6.18;89.01;101199.37;640153;221;24957;-76
2021/03/23 04:13:25;;;;;;;12.43;8.40;;;;;;;6.26;89.29;101200.22;645073;221;24860;-77
2021/03/23 04:15:52;;;;;;;13.17;8.03;;;;;;;6.10;88.88;101195.16;642401;221;24873;-76
2021/03/23 04:18:20;;;;;;;16.60;10.33;;;;;;;6.66;87.36;101192.61;635416;221;32829;-76
2021/03/23 04:20:48;;;;;;;15.03;8.70;;;;;;;6.11;88.91;101198.56;639898;221;24890;-76
2021/03/23 04:23:20;;;;;;;14.50;9.10;;;;;;;6.01;89.30;101197.45;631974;225;24930;-77
2021/03/23 04:25:48;;;;;;;15.60;9.60;;;;;;;6.57;87.57;101195.75;632896;221;32756;-77
2021/03/23 04:28:16;;;;;;;16.70;9.90;;;;;;;6.17;89.03;101191.72;638467;222;26970;-76
2021/03/23 04:30:44;;;;;;;15.27;8.73;;;;;;;6.11;89.22;101194.69;631816;224;25014;-76
2021/03/23 04:33:13;;;;;;;16.30;9.20;;;;;;;6.10;89.12;101196.45;634714;225;25015;-77
2021/03/23 04:35:43;;;;;;;14.67;8.83;;;;;;;5.95;89.77;101194.78;631928;225;24934;-77
2021/03/23 04:38:11;;;;;;;11.87;8.70;;;;;;;6.00;90.04;101199.66;646136;221;24897;-77
2021/03/23 04:40:39;;;;;;;20.20;9.20;;;;;;;6.06;89.52;101203.19;640631;220;24915;-76
2021/03/23 04:43:07;;;;;;;16.03;9.50;;;;;;;6.67;87.54;101195.09;641184;220;32854;-78
2021/03/23 04:45:35;;;;;;;14.95;10.00;;;;;;;6.80;86.20;101185.64;633697;220;32763;-79
2021/03/23 04:48:02;;;;;;;17.90;9.50;;;;;;;6.23;88.61;101202.53;638123;221;23784;-76
2021/03/23 04:50:31;;;;;;;15.60;9.27;;;;;;;6.10;89.40;101203.36;641996;221;24886;-79
2021/03/23 04:52:58;;;;;;;17.52;11.08;;;;;;;6.70;86.91;101204.41;623007;226;32888;-77
2021/03/23 04:55:26;;;;;;;19.23;9.70;;;;;;;6.11;88.87;101207.60;646539;221;23766;-77
2021/03/23 04:57:54;;;;;;;17.10;8.63;;;;;;;5.86;90.09;101210.31;628946;225;24954;-76
2021/03/23 05:00:22;;;;;;;14.73;9.20;;;;;;;6.10;89.41;101218.86;649127;221;24938;-76
2021/03/23 05:02:50;;;;;;;17.77;9.43;;;;;;;6.13;88.64;101216.08;644611;221;24913;-77
2021/03/23 05:05:18;;;;;;;17.00;9.30;;;;;;;5.99;89.59;101223.82;630524;225;24939;-77
2021/03/23 05:07:46;;;;;;;15.73;8.70;;;;;;;5.92;89.89;101225.95;647324;221;24870;-76
2021/03/23 05:10:14;;;;;;;14.73;8.13;;;;;;;5.86;90.38;101236.13;630120;225;24932;-76
2021/03/23 05:12:42;;;;;;;19.70;9.70;;;;;;;5.85;90.71;101233.63;644635;221;24882;-77
2021/03/23 05:15:11;;;;;;;18.63;8.70;;;;;;;5.83;91.12;101229.86;634588;225;24982;-77
2021/03/23 05:17:39;;;;;;;16.03;9.90;;;;;;;5.82;91.01;101233.82;639794;222;24924;-77
2021/03/23 05:20:08;;;;;;;14.00;9.40;;;;;;;5.91;91.26;101230.28;643608;221;24867;-77
2021/03/23 05:22:36;;;;;;;16.30;8.93;;;;;;;5.86;90.68;101233.54;635166;225;26076;-77
2021/03/23 05:25:05;;;;;;;19.03;10.67;;;;;;;5.97;91.07;101235.53;646719;221;24871;-77
2021/03/23 05:27:33;;;;;;;14.20;9.53;;;;;;;5.88;90.60;101229.11;628119;225;26022;-76
2021/03/23 05:30:00;;;;;;;16.83;9.83;;;;;;;5.91;91.30;101235.45;632771;225;28202;-76
2021/03/23 05:32:28;;;;;;;17.80;9.80;;;;;;;5.90;90.68;101240.20;639909;221;24930;-76
2021/03/23 05:34:56;;;;;;;15.03;10.07;;;;;;;5.85;90.72;101240.92;644774;221;24885;-77
2021/03/23 05:37:24;;;;;;;12.70;9.03;;;;;;;5.97;90.54;101238.58;624569;226;24932;-77
2021/03/23 05:39:52;;;;;;;14.13;10.00;;;;;;;6.00;90.30;101235.81;629585;225;25026;-77
2021/03/23 05:42:21;;;;;;;15.40;9.27;;;;;;;5.91;90.51;101242.33;644493;219;24918;-76
2021/03/23 05:44:53;;;;;;;17.77;9.40;;;;;;;5.92;90.83;101240.98;646422;220;24948;-77
2021/03/23 05:47:21;;;;;;;13.90;9.50;;;;;;;5.98;91.34;101250.56;630658;225;24939;-77
2021/03/23 05:49:50;;;;;;;13.40;9.07;;;;;;;5.97;90.87;101249.73;638935;221;24891;-77
2021/03/23 05:52:19;;;;;;;14.03;8.87;;;;;;;5.98;91.01;101251.86;642599;221;24891;-76
2021/03/23 05:54:48;;;;;;;18.97;10.20;;;;;;;5.95;91.18;101258.86;644287;220;24899;-77
2021/03/23 05:57:20;;;;;;;12.53;8.40;;;;;;;5.91;91.75;101263.84;642556;220;28060;-77
2021/03/23 05:59:50;;;;;;;21.20;10.20;;;;;;;5.94;91.61;101264.95;641451;220;25167;-76
2021/03/23 06:02:21;;;;;;;15.90;10.27;;;;;;;5.85;91.68;101270.61;645423;221;24915;-77
2021/03/23 06:04:49;;;;;;;15.77;9.07;;;;;;;6.01;91.46;101271.03;639386;221;24870;-77
2021/03/23 06:07:17;;;;;;;17.57;9.23;;;;;;;6.07;91.19;101273.27;644168;221;25908;-77
2021/03/23 06:09:46;;;;;;;14.23;9.83;;;;;;;6.19;90.24;101265.64;644481;221;24880;-76
2021/03/23 06:12:21;;;;;;;15.10;10.07;;;;;;;6.18;90.94;101261.36;634111;225;24937;-76
2021/03/23 06:14:51;;;;;;;15.37;9.57;;;;;;;6.20;91.09;101263.88;647061;221;24932;-76
2021/03/23 06:17:23;;;;;;;13.83;8.83;;;;;;;6.22;91.08;101268.03;642910;221;25251;-76
2021/03/23 06:19:53;;;;;;;16.70;10.00;;;;;;;6.34;90.23;101260.48;628218;225;24936;-76
2021/03/23 06:22:23;;;;;;;19.60;11.60;;;;;;;6.90;87.97;101257.02;624080;225;32961;-76
2021/03/23 06:24:55;;;;;;;17.10;10.73;;;;;;;6.54;88.06;101258.34;641933;222;23799;-76
2021/03/23 06:27:24;;;;;;;16.50;10.77;;;;;;;6.54;88.92;101258.34;630373;226;24936;-76
2021/03/23 06:30:03;;;;;;;14.70;10.23;;;;;;;6.58;88.17;101268.48;626892;225;25049;-78
2021/03/23 06:32:33;;;;;;;14.13;10.50;;;;;;;6.52;89.12;101264.06;641515;221;27028;-76
2021/03/23 06:35:01;;;;;;;21.83;10.30;;;;;;;6.48;88.68;101261.77;639950;221;24886;-76
2021/03/23 06:37:29;;;;;;;16.23;10.93;;;;;;;6.71;88.73;101266.81;628692;225;24936;-76
2021/03/23 06:39:57;;;;;;;16.37;10.43;;;;;;;6.71;88.59;101271.98;638790;221;24900;-76
2021/03/23 06:42:31;;;;;;;19.17;10.17;;;;;;;6.88;88.43;101273.05;640782;221;24920;-77
2021/03/23 06:45:10;;;;;;;15.90;9.77;;;;;;;6.83;88.50;101280.28;639427;221;24886;-78
2021/03/23 06:47:38;;;;;;;14.65;10.85;;;;;;;7.34;86.31;101274.06;635490;220;32758;-77
2021/03/23 06:50:16;;;;;;;27.00;10.80;;;;;;;6.91;87.84;101283.23;645582;221;23749;-76
2021/03/23 06:52:44;;;;;;;21.40;11.13;;;;;;;6.97;88.16;101281.55;626564;225;24944;-78
2021/03/23 06:55:23;;;;;;;17.55;10.88;;;;;;;7.52;85.96;101278.05;628842;224;33084;-76
2021/03/23 06:57:51;;;;;;;14.97;10.57;;;;;;;7.04;87.58;101288.02;645581;220;24887;-76
2021/03/23 07:00:21;;;;;;;16.83;10.63;;;;;;;7.11;87.58;101280.69;630154;225;24977;-76
2021/03/23 07:02:49;;;;;;;18.03;10.70;;;;;;;7.14;87.17;101289.54;646447;221;24883;-76
2021/03/23 07:05:23;;;;;;;14.43;10.40;;;;;;;7.10;87.88;101289.38;637944;225;24927;-77
2021/03/23 07:07:53;;;;;;;14.50;9.37;;;;;;;6.91;88.05;101295.34;648078;221;32961;-77
2021/03/23 07:10:22;;;;;;;17.03;10.03;;;;;;;6.90;86.63;101296.23;641322;220;24895;-76
2021/03/23 07:12:51;;;;;;;16.70;10.23;;;;;;;6.95;86.43;101295.04;628361;225;24919;-76
2021/03/23 07:15:19;;;;;;;16.97;10.30;;;;;;;7.04;86.79;101297.06;640973;221;24901;-76
2021/03/23 07:17:46;;;;;;;18.40;11.77;;;;;;;7.26;86.57;101304.76;626781;226;24986;-76
2021/03/23 07:20:22;;;;;;;16.10;9.80;;;;;;;7.48;85.80;101301.65;633358;225;24867;-76
2021/03/23 07:22:51;;;;;;;17.57;11.10;;;;;;;7.54;85.86;101295.60;637551;221;24877;-76
2021/03/23 07:25:29;;;;;;;14.10;9.30;;;;;;;7.46;85.19;101292.69;640392;222;25141;-76
2021/03/23 07:28:12;;;;;;;17.35;11.70;;;;;;;7.90;84.50;101294.98;634501;222;33119;-76
2021/03/23 07:30:42;;;;;;;16.10;11.48;;;;;;;8.03;82.72;101296.29;635457;221;33011;-76
2021/03/23 07:33:11;;;;;;;16.13;11.00;;;;;;;7.59;84.71;101303.06;638266;221;23777;-76
2021/03/23 07:35:39;;;;;;;15.10;10.57;;;;;;;7.76;84.54;101312.34;643908;221;25944;-76
2021/03/23 07:38:07;;;;;;;18.37;10.57;;;;;;;7.88;84.42;101312.38;639693;221;24913;-76
2021/03/23 07:40:37;;;;;;;17.17;10.00;;;;;;;7.96;84.81;101316.58;640742;221;24887;-76
2021/03/23 07:43:10;;;;;;;18.50;11.27;;;;;;;8.16;83.89;101309.23;639506;221;24898;-76
2021/03/23 07:45:42;;;;;;;15.77;10.33;;;;;;;8.17;84.04;101309.16;640759;222;24899;-77
2021/03/23 07:48:11;;;;;;;15.47;11.13;;;;;;;8.33;83.33;101308.48;644245;221;25937;-76
2021/03/23 07:50:39;;;;;;;14.57;10.77;;;;;;;8.41;82.13;101305.86;642813;221;25171;-77
2021/03/23 07:53:07;;;;;;;17.07;11.93;;;;;;;8.39;82.00;101305.14;645200;221;26029;-76
2021/03/23 07:55:34;;;;;;;20.77;11.60;;;;;;;8.35;81.70;101304.98;642510;221;24900;-76
2021/03/23 07:58:15;;;;;;;18.07;10.63;;;;;;;8.24;80.95;101298.73;639981;221;24990;-76
2021/03/23 08:00:58;;;;;;;14.57;11.50;;;;;;;8.38;80.81;101303.48;647083;221;24877;-76
2021/03/23 08:03:51;;;;;;;17.53;11.30;;;;;;;8.50;80.66;101305.23;644089;222;24893;-76
2021/03/23 08:06:21;;;;;;;19.13;11.47;;;;;;;8.68;80.07;101296.66;641705;221;24920;-76
2021/03/23 08:08:59;;;;;;;18.55;12.82;;;;;;;9.45;78.14;101297.63;635288;221;33088;-76
2021/03/23 08:11:30;;;;;;;15.80;11.10;;;;;;;9.02;78.28;101295.98;646356;220;23761;-77
2021/03/23 08:14:03;;;;;;;17.47;12.23;;;;;;;9.67;76.64;101289.55;639346;221;32764;-77
2021/03/23 08:16:38;;;;;;;17.33;12.40;;;;;;;9.23;78.23;101292.31;640522;220;24916;-76
2021/03/23 08:19:15;;;;;;;19.13;11.40;;;;;;;9.32;78.10;101295.55;641248;221;24873;-77
2021/03/23 08:21:50;;;;;;;19.33;11.20;;;;;;;9.46;77.62;101299.75;645029;220;24968;-76
2021/03/23 08:24:25;;;;;;;16.83;10.73;;;;;;;9.47;77.84;101298.34;640671;220;24898;-77
2021/03/23 08:27:01;;;;;;;22.30;12.93;;;;;;;9.46;76.59;101294.56;640243;221;25193;-76
2021/03/23 08:29:29;;;;;;;17.40;12.90;;;;;;;9.80;74.55;101287.71;635529;220;32830;-76
2021/03/23 08:32:03;;;;;;;18.53;12.80;;;;;;;9.40;75.32;101278.11;643058;221;24887;-77
2021/03/23 08:34:36;;;;;;;17.55;12.43;;;;;;;10.14;74.13;101274.81;633159;221;33236;-76
2021/03/23 08:37:12;;;;;;;22.70;12.13;;;;;;;9.56;74.12;101272.62;641245;222;23759;-77
2021/03/23 08:39:44;;;;;;;18.33;12.27;;;;;;;9.85;71.97;101268.70;636283;221;32853;-77
2021/03/23 08:42:11;;;;;;;18.27;11.87;;;;;;;9.70;72.04;101269.84;641889;221;27068;-76
2021/03/23 08:44:39;;;;;;;18.70;11.07;;;;;;;9.73;72.56;101274.84;642855;219;27084;-76
2021/03/23 08:47:09;;;;;;;20.10;11.70;;;;;;;9.67;71.41;101276.09;639175;221;24892;-76
2021/03/23 08:49:38;;;;;;;15.87;10.60;;;;;;;9.76;71.47;101269.41;640214;221;25944;-76
2021/03/23 08:52:10;;;;;;;15.07;10.40;;;;;;;9.66;71.42;101281.41;629827;225;25010;-76
2021/03/23 08:54:46;;;;;;;14.70;10.10;;;;;;;9.72;70.43;101276.61;628711;225;24945;-76
2021/03/23 08:57:14;;;;;;;18.77;12.07;;;;;;;9.67;69.10;101270.08;639667;224;25076;-76
2021/03/23 08:59:45;;;;;;;15.40;10.70;;;;;;;9.59;70.55;101277.63;631226;225;24955;-77
2021/03/23 09:02:23;;;;;;;17.10;11.57;;;;;;;9.57;70.58;101279.47;640219;224;24904;-76
2021/03/23 09:04:55;;;;;;;21.63;12.17;;;;;;;9.66;71.38;101285.30;629033;225;24960;-76
2021/03/23 09:07:23;;;;;;;22.73;11.80;;;;;;;9.78;69.91;101283.94;633176;225;24931;-77
2021/03/23 09:09:52;;;;;;;20.73;12.00;;;;;;;9.93;69.35;101294.13;641440;221;24885;-76
2021/03/23 09:12:35;;;;;;;18.75;12.78;;;;;;;10.11;68.47;101281.05;634080;221;32775;-77
2021/03/23 09:15:18;;;;;;;14.60;11.10;;;;;;;10.00;69.31;101281.88;627855;225;23815;-76
2021/03/23 09:17:53;;;;;;;16.00;10.17;;;;;;;10.09;67.11;101269.47;630724;225;24927;-77
2021/03/23 09:20:48;;;;;;;16.10;10.67;;;;;;;9.66;66.77;101276.22;630282;224;23992;-76
2021/03/23 09:23:27;;;;;;;17.73;10.13;;;;;;;9.92;68.92;101272.98;640190;220;25178;-76
2021/03/23 09:25:55;;;;;;;15.80;10.00;;;;;;;10.08;67.07;101272.19;636864;224;28121;-76
2021/03/23 09:28:33;;;;;;;15.97;10.60;;;;;;;10.55;66.92;101270.35;640351;221;24888;-76
2021/03/23 09:31:01;;;;;;;18.90;11.20;;;;;;;10.52;65.58;101271.89;631931;223;25147;-77
2021/03/23 09:33:33;;;;;;;15.47;10.93;;;;;;;10.14;65.66;101265.72;643235;220;24909;-77
2021/03/23 09:36:12;;;;;;;20.82;11.93;;;;;;;10.52;65.74;101262.80;624373;225;32904;-76
2021/03/23 09:38:40;;;;;;;19.40;12.10;;;;;;;10.76;66.17;101265.27;629011;225;22795;-76
2021/03/23 09:41:07;;;;;;;19.80;12.50;;;;;;;10.88;64.83;101259.92;638207;221;24875;-76
2021/03/23 09:43:38;;;;;;;16.40;11.50;;;;;;;11.05;64.13;101257.28;629194;226;24922;-76
2021/03/23 09:46:11;;;;;;;23.07;12.87;;;;;;;11.32;63.25;101252.11;630706;225;30254;-76
2021/03/23 09:48:48;;;;;;;16.97;11.50;;;;;;;11.40;63.36;101256.20;642783;221;24861;-76
2021/03/23 09:51:27;;;;;;;23.40;13.40;;;;;;;11.21;64.12;101251.19;631325;225;23981;-76
2021/03/23 09:53:55;;;;;;;21.90;12.87;;;;;;;10.43;64.24;101253.12;629915;225;25213;-76
2021/03/23 09:56:24;;;;;;;18.37;11.80;;;;;;;10.46;66.40;101255.48;640987;221;24908;-76
2021/03/23 09:58:57;;;;;;;18.60;13.50;;;;;;;10.72;66.00;101259.95;626141;225;32949;-76
2021/03/23 10:01:25;;;;;;;24.33;13.03;;;;;;;10.96;66.65;101259.30;639728;221;23808;-76
2021/03/23 10:03:53;;;;;;;19.20;12.17;;;;;;;10.86;65.85;101257.92;643112;220;29205;-77
2021/03/23 10:06:20;;;;;;;18.40;12.83;;;;;;;10.85;65.10;101247.64;642287;221;24914;-76
2021/03/23 10:08:53;;;;;;;18.80;12.60;;;;;;;10.49;65.50;101243.53;628589;225;24963;-76
2021/03/23 10:11:21;;;;;;;19.23;12.03;;;;;;;10.29;64.97;101243.78;629686;226;24014;-76
2021/03/23 10:13:50;;;;;;;16.15;11.25;;;;;;;11.33;62.44;101238.14;630114;225;32990;-76
2021/03/23 10:16:22;;;;;;;19.57;12.20;;;;;;;11.09;62.88;101225.31;639581;221;23744;-76
2021/03/23 10:18:50;;;;;;;16.93;11.20;;;;;;;11.06;62.66;101232.07;627361;226;24960;-76
2021/03/23 10:21:22;;;;;;;17.90;12.60;;;;;;;11.10;60.73;101218.67;623033;225;32913;-76
2021/03/23 10:23:46;;;;;;;21.93;11.90;;;;;;;11.40;63.33;101227.55;629514;225;23835;-75
2021/03/23 10:26:14;;;;;;;16.37;11.20;;;;;;;11.77;63.02;101222.27;639643;221;28139;-75
2021/03/23 10:28:48;;;;;;;17.20;12.07;;;;;;;12.10;62.49;101212.59;631215;225;24934;-76
2021/03/23 10:31:12;;;;;;;21.60;11.10;;;;;;;12.18;61.00;101205.78;639542;222;24913;-77
2021/03/23 10:33:40;;;;;;;19.60;12.40;;;;;;;11.68;61.25;101204.78;629422;225;24939;-76
2021/03/23 10:36:08;;;;;;;18.00;13.10;;;;;;;11.45;61.73;101211.92;631150;225;25246;-76
2021/03/23 10:38:39;;;;;;;19.62;12.82;;;;;;;11.63;61.29;101213.95;640038;220;32809;-76
2021/03/23 10:41:18;;;;;;;17.83;13.50;;;;;;;12.04;61.57;101208.73;642905;220;23819;-76
2021/03/23 10:43:45;;;;;;;20.68;12.43;;;;;;;12.05;60.21;101201.73;632834;224;33250;-76
2021/03/23 10:46:25;;;;;;;15.70;11.83;;;;;;;11.76;58.92;101198.47;640043;221;32772;-76
2021/03/23 10:48:53;;;;;;;15.33;10.87;;;;;;;10.90;59.71;101201.24;640152;221;23809;-77
2021/03/23 10:51:21;;;;;;;15.90;11.55;;;;;;;11.46;60.35;101199.72;628875;225;33007;-75
2021/03/23 10:53:59;;;;;;;20.60;11.70;;;;;;;11.46;60.43;101197.11;641486;221;23853;-75
2021/03/23 10:56:29;;;;;;;18.27;12.50;;;;;;;11.52;58.92;101194.81;630088;225;25006;-76
2021/03/23 10:59:05;;;;;;;20.35;14.03;;;;;;;11.63;61.25;101195.71;634900;221;32798;-76
2021/03/23 11:01:32;;;;;;;21.20;13.73;;;;;;;11.66;62.18;101206.70;631185;225;23772;-76
2021/03/23 11:04:10;;;;;;;19.45;13.85;;;;;;;12.47;58.80;101207.66;638451;221;32873;-73
2021/03/23 11:06:40;;;;;;;18.63;13.17;;;;;;;12.26;59.02;101192.58;641975;221;23800;-75
2021/03/23 11:09:08;;;;;;;19.15;14.07;;;;;;;13.15;57.54;101186.89;627080;225;33003;-74
2021/03/23 11:11:35;;;;;;;15.43;11.77;;;;;;;12.44;57.59;101186.59;641817;221;23804;-74
2021/03/23 11:14:02;;;;;;;18.23;13.50;;;;;;;12.86;57.63;101183.78;632423;225;33072;-74
2021/03/23 11:16:30;;;;;;;18.93;12.53;;;;;;;12.46;59.63;101188.58;630499;225;23946;-74
2021/03/23 11:19:00;;;;;;;22.07;13.67;;;;;;;12.46;59.52;101189.88;645297;221;24920;-74
2021/03/23 11:21:26;;;;;;;19.60;12.70;;;;;;;12.34;60.09;101181.81;639083;221;24894;-74
2021/03/23 11:23:56;;;;;;;20.90;12.73;;;;;;;11.85;60.45;101185.19;643967;221;24904;-75
2021/03/23 11:26:24;;;;;;;19.47;11.57;;;;;;;11.79;61.80;101189.12;629422;225;24926;-76
2021/03/23 11:28:53;;;;;;;16.20;9.67;;;;;;;11.53;58.20;101185.22;640813;221;24898;-76
2021/03/23 11:31:20;;;;;;;17.83;11.00;;;;;;;11.82;59.65;101180.20;629163;225;27123;-76